Aeroporto :
LOGIN :

Iscrizione | Disclaimer

   EN    FR    IT 

 










Sommario :    VFR   VFR Marginale   IFR   IFR Intensivo   IFR Molto Intensivo
Visibilità : 
Base nubi : 
>= 8 km
>= 3000ft
5 / 8 km
1000 / 3000 ft
1500m / 5 km
500 / 1000 ft
800 / 1500m
200 / 500 ft
< 800m
< 200 ft
Simboli :   Temporali  Nebbia  Neve Forte  Precipitazioni Forti  Vento > 20 kt
SIGMETs :   Varie  Temporali  Ghiacco  Turbolenza  Onda orograficha  Ceneri Vulcaniche






- Altitudine del aeroporto : 16 ft
- Codice IATA : EAS


LESO - San Sebastian Fuenterrabia

ULTIMO METAR :
  • 130900Z 23002KT 9999 FEW009 BKN037 11/10 Q1011

METARs OBSOLETI :
  • 130830Z 00000KT 9999 BKN039 11/10 Q1011
  • 130800Z 29001KT 9999 BKN047 11/10 Q1010
  • 130730Z VRB01KT 9999 FEW010 BKN036 10/09 Q1009
  • 130700Z VRB01KT 9999 FEW010 BKN032 10/10 Q1009

TAF TAF LESO
Valido dal 13 a 06 ore il 14 a 06 ore UTC


130500Z 1306/1406 VRB06KT 9999 SCT020 BKN035 TX13/1314Z TN07/1406Z
TEMPO 1306/1312 3000 RA SHRA BKN010 BKN014 SCT030TCU
BECMG 1313/1317 26010KT
PROB30
TEMPO 1322/1324 27015G25KT RA
TEMPO 1400/1406 27018G30KT 3000 RA SHRA BKN010 BKN020TCU
PROB30
TEMPO 1403/1406 36020G35KT SHRA TS SCT030CB



MetMap, La meteo Aeronautica in un colpo d'occhio ! - Copyright ORBIFLY Dicembre 2007 - Disclaimer

ORBIFLY MET'MAP TEAM :

Programmazione e sviluppo : Alexandra Zaïnal
Concezione e sviluppo : Baudouin d'Aumeries
Co-Programmazione e sviluppo : Marc-Olivier Méhu
Supporto tecnico e logistico : Manuel Goepfert
Aiuto per la traduzione : Arnaldo La Scala

Contatto : metmap@orbifly.com




FONTI E CREDITI :

   NOAA